Riverton, WY

6:17 PM MDT on April 18, 2015 (GMT -0600)
Hunt | | Change Station
CLOSE
Current Station
Airport
Location: Lander,
Elevation: 5558 ft
Nearby Weather Stations

Elev 5558 ft 42.82 °N, 108.73 °W | Updated 24 minutes ago

Partly Cloudy
Partly Cloudy
57 °F
Feels Like 57 °F
N
22
Wind Variable Wind from North
Gusts 32 mph

Today
High -- | Low -- °F
--% Chance of Precip.
Yesterday
High -- | Low -- °F
Precip. -- in
6:27 AM 7:59 PM
New Moon, 0% visible
Pressure 29.92 in
Visibility 10.0 miles
Clouds Overcast 9500 ft
Dew Point 27 °F
Humidity 32%
Rainfall 0.00 in
Snow Depth Not available.
UV 1 out of 12
Pollen 9.60 out of 12
Air Quality Not available.
Flu Activity Local Activity
METAR KLND 182353Z AUTO 01019G28KT 10SM OVC095 14/M03 A2996 RMK AO2 PK WND 36028/2346 SLP131 T01391028 10167 20139 53006

More Conditions Fewer Conditions

Pressure 29.92 in
Visibility 10.0 miles
Clouds Overcast 9500 ft
Dew Point 27 °F
Humidity 32%
Rainfall 0.00 in
Snow Depth Not available.
UV 1 out of 12
Pollen 9.60 out of 12
Air Quality Not available.
Flu Activity Local Activity
METAR KLND 182353Z AUTO 01019G28KT 10SM OVC095 14/M03 A2996 RMK AO2 PK WND 36028/2346 SLP131 T01391028 10167 20139 53006

More Conditions Fewer Conditions

10-Day Weather Forecast

Almanac

Astronomy

Apr. 18, 2015 Rise Set
Actual Time
Civil Twilight
Nautical Twilight
Astronomical Twilight
Moon
Length of Visible Light
Length of Day
Tomorrow will be .
, % of the Moon is Illuminated

Today's Extremes

State Highs State Lows

Community

WunderPhotos

Upload Photos

1,814,592 photos uploaded!

WunderBlogs® & News

Nearby

Air Quality

  Air Quality AQ Index Pollutant
Not available.

Snow Depth

Station Depth Elevation

Earthquake Activity

City Distance Mag. Time & Date
Minimum magnitude displayed is 2.5.

Coastal Water Temperatures

Place Temperature

Stations

Nearby Weather Stations

Station Location Temp. Windchill Dew Point Humidity Wind Precip. Elev Updated Type